createdAt,value
2022-11-28T00:00:54.776Z,81.98
2022-11-28T00:03:57.838Z,81.96
2022-11-28T00:07:00.699Z,82.55
2022-11-28T00:10:05.129Z,83.32
2022-11-28T00:13:08.033Z,83.96
2022-11-28T00:16:16.119Z,84.39
2022-11-28T00:19:19.806Z,83.82
2022-11-28T00:22:22.691Z,83.84
2022-11-28T00:25:25.367Z,83.75
2022-11-28T00:28:28.543Z,83.92
2022-11-28T00:31:33.897Z,84.66
2022-11-28T00:34:36.979Z,84.54
2022-11-28T00:37:39.595Z,84.46
2022-11-28T00:40:42.443Z,84.60
2022-11-28T00:43:46.688Z,85.12
2022-11-28T00:46:50.517Z,85.09
2022-11-28T00:49:53.173Z,85.11
2022-11-28T00:52:56.081Z,85.09
2022-11-28T00:55:58.716Z,85.47
2022-11-28T00:59:01.699Z,85.76
2022-11-28T01:02:04.689Z,86.46
2022-11-28T01:05:07.960Z,85.95
2022-11-28T01:08:11.050Z,86.09
2022-11-28T01:11:14.290Z,85.92
2022-11-28T01:14:19.258Z,85.99
2022-11-28T01:17:22.176Z,85.90
2022-11-28T01:20:25.955Z,86.05
2022-11-28T01:23:28.947Z,85.94
2022-11-28T01:26:31.685Z,85.61
2022-11-28T01:29:34.563Z,85.62
2022-11-28T01:32:38.409Z,86.19
2022-11-28T01:35:41.257Z,86.37
2022-11-28T01:38:46.840Z,86.66
2022-11-28T01:41:50.815Z,87.25
2022-11-28T01:44:53.355Z,87.68
2022-11-28T01:48:01.975Z,87.74
2022-11-28T01:51:19.613Z,88.29
2022-11-28T01:54:25.721Z,88.53
2022-11-28T01:57:29.226Z,88.36
2022-11-28T02:00:32.525Z,88.47
2022-11-28T02:03:44.378Z,88.85
2022-11-28T02:06:48.308Z,89.25
2022-11-28T02:09:50.913Z,89.27
2022-11-28T02:13:15.919Z,89.34
2022-11-28T02:16:53.318Z,89.19
2022-11-28T02:20:12.677Z,88.69
2022-11-28T02:23:42.252Z,88.06
2022-11-28T02:27:16.198Z,87.59
2022-11-28T02:30:23.183Z,87.32
2022-11-28T02:34:01.147Z,87.17
2022-11-28T02:37:09.857Z,87.06
2022-11-28T02:40:24.810Z,86.86
2022-11-28T02:43:49.590Z,86.74
2022-11-28T02:47:06.001Z,86.75
2022-11-28T02:50:30.581Z,87.49
2022-11-28T02:53:35.422Z,87.28
2022-11-28T02:56:38.510Z,87.69
2022-11-28T02:59:41.410Z,87.43
2022-11-28T03:02:45.632Z,87.22
2022-11-28T03:06:04.043Z,86.90
2022-11-28T03:09:15.236Z,87.01
2022-11-28T03:12:41.046Z,86.93
2022-11-28T03:15:55.818Z,86.99
2022-11-28T03:19:28.049Z,87.09
2022-11-28T03:23:01.715Z,87.57
2022-11-28T03:26:10.248Z,87.73
2022-11-28T03:29:20.948Z,87.97
2022-11-28T03:32:28.796Z,87.81
2022-11-28T03:35:36.667Z,87.56
2022-11-28T03:38:45.552Z,87.31
2022-11-28T03:42:05.322Z,87.30
2022-11-28T03:45:18.984Z,86.82
2022-11-28T03:48:35.022Z,86.78
2022-11-28T03:51:40.169Z,86.40
2022-11-28T03:55:04.630Z,85.90
2022-11-28T03:58:20.856Z,86.03
2022-11-28T04:01:55.560Z,85.82
2022-11-28T04:05:25.716Z,85.80
2022-11-28T04:08:40.093Z,85.96
2022-11-28T04:11:54.197Z,86.08
2022-11-28T04:15:03.915Z,86.38
2022-11-28T04:18:18.673Z,86.60
2022-11-28T04:21:35.964Z,86.64
2022-11-28T04:24:45.636Z,87.16
2022-11-28T04:27:54.353Z,87.43
2022-11-28T04:31:00.848Z,87.06
2022-11-28T04:34:11.542Z,87.04
2022-11-28T04:37:16.180Z,87.59
2022-11-28T04:40:20.771Z,87.70
2022-11-28T04:43:49.243Z,87.58
2022-11-28T04:46:54.732Z,87.92
2022-11-28T04:49:58.465Z,87.66
2022-11-28T04:53:08.154Z,87.87
2022-11-28T04:56:21.328Z,87.52
2022-11-28T04:59:26.934Z,87.20
2022-11-28T05:02:30.604Z,87.53
2022-11-28T05:05:43.938Z,87.67
2022-11-28T05:08:46.868Z,87.55
2022-11-28T05:11:49.436Z,87.64
2022-11-28T05:14:52.415Z,87.45
2022-11-28T05:17:55.090Z,87.62
2022-11-28T05:21:01.722Z,87.53
2022-11-28T05:24:04.493Z,88.28
2022-11-28T05:27:08.432Z,88.38
2022-11-28T05:30:11.744Z,88.45
2022-11-28T05:33:14.738Z,88.42
2022-11-28T05:36:18.508Z,88.03
2022-11-28T05:39:21.892Z,88.04
2022-11-28T05:42:26.044Z,87.84
2022-11-28T05:45:28.965Z,87.62
2022-11-28T05:48:31.584Z,87.36
2022-11-28T05:51:34.913Z,87.14
2022-11-28T05:54:37.871Z,87.13
2022-11-28T05:57:40.784Z,87.23
2022-11-28T06:00:43.356Z,86.40
2022-11-28T06:03:46.734Z,86.26
2022-11-28T06:06:51.063Z,86.09
2022-11-28T06:09:54.818Z,85.76
2022-11-28T06:12:57.472Z,86.14
2022-11-28T06:16:00.676Z,85.83
2022-11-28T06:19:06.780Z,85.84
2022-11-28T06:22:10.230Z,85.65
2022-11-28T06:25:13.148Z,86.03
2022-11-28T06:28:16.072Z,86.15
2022-11-28T06:31:21.877Z,86.42
2022-11-28T06:34:25.053Z,86.78
2022-11-28T06:37:28.595Z,86.83
2022-11-28T06:40:31.512Z,86.65
2022-11-28T06:43:34.591Z,86.74
2022-11-28T06:46:38.256Z,86.32
2022-11-28T06:49:41.458Z,86.40
2022-11-28T06:52:44.906Z,86.00
2022-11-28T06:55:47.475Z,85.79
2022-11-28T06:58:56.713Z,85.64
2022-11-28T07:02:07.164Z,85.30
2022-11-28T07:05:10.541Z,85.22
2022-11-28T07:08:13.283Z,85.38
2022-11-28T07:11:31.906Z,85.32
2022-11-28T07:14:34.926Z,85.38
2022-11-28T07:17:38.089Z,85.33
2022-11-28T07:20:44.655Z,85.86
2022-11-28T07:23:48.169Z,85.86
2022-11-28T07:26:50.875Z,85.44
2022-11-28T07:29:53.756Z,85.63
2022-11-28T07:32:56.358Z,85.29
2022-11-28T07:36:04.867Z,84.65
2022-11-28T07:39:09.024Z,84.72
2022-11-28T07:42:12.544Z,83.93
2022-11-28T07:45:15.345Z,83.69
2022-11-28T07:48:18.336Z,83.57
2022-11-28T07:51:27.154Z,82.32
2022-11-28T07:54:30.186Z,81.88
2022-11-28T07:57:33.308Z,81.78
2022-11-28T08:00:36.339Z,81.72
2022-11-28T08:03:39.908Z,80.97
2022-11-28T08:06:44.454Z,81.21
2022-11-28T08:09:47.867Z,81.68
2022-11-28T08:12:51.207Z,81.53
2022-11-28T08:15:54.689Z,82.01
2022-11-28T08:19:00.742Z,81.99
2022-11-28T08:22:06.121Z,81.75
2022-11-28T08:25:09.427Z,80.73
2022-11-28T08:28:12.480Z,80.46
2022-11-28T08:31:21.422Z,80.25
2022-11-28T08:34:24.515Z,80.03
2022-11-28T08:37:28.557Z,80.24
2022-11-28T08:40:31.586Z,80.00
2022-11-28T08:43:34.954Z,80.37
2022-11-28T08:46:38.090Z,81.01
2022-11-28T08:49:41.082Z,81.24
2022-11-28T08:52:44.059Z,81.09
2022-11-28T08:55:49.090Z,81.15
2022-11-28T08:58:51.970Z,80.46
2022-11-28T09:01:54.943Z,80.75
2022-11-28T09:04:57.905Z,81.27
2022-11-28T09:08:00.854Z,80.89
2022-11-28T09:11:07.017Z,80.70
2022-11-28T09:14:09.807Z,80.84
2022-11-28T09:17:12.917Z,81.76
2022-11-28T09:20:16.916Z,81.42
2022-11-28T09:23:19.900Z,82.21
2022-11-28T09:26:25.353Z,81.93
2022-11-28T09:29:29.501Z,82.38
2022-11-28T09:32:32.109Z,82.89
2022-11-28T09:35:38.468Z,83.79
2022-11-28T09:38:41.301Z,83.06
2022-11-28T09:42:04.576Z,83.17
2022-11-28T09:45:17.475Z,81.95
2022-11-28T09:48:20.406Z,81.60
2022-11-28T09:51:37.997Z,81.30
2022-11-28T09:54:48.873Z,80.78
2022-11-28T09:57:53.152Z,80.43
2022-11-28T10:01:08.351Z,80.57
2022-11-28T10:04:30.173Z,80.60
2022-11-28T10:07:55.390Z,81.74
2022-11-28T10:11:15.500Z,81.97
2022-11-28T10:14:37.128Z,81.63
2022-11-28T10:17:59.224Z,82.43
2022-11-28T10:21:17.710Z,82.67
2022-11-28T10:24:29.623Z,82.40
2022-11-28T10:27:36.094Z,81.87
2022-11-28T10:30:45.779Z,81.34
2022-11-28T10:33:52.519Z,81.74
2022-11-28T10:37:16.128Z,82.33
2022-11-28T10:40:33.720Z,81.85
2022-11-28T10:44:03.193Z,81.50
2022-11-28T10:47:15.401Z,81.37
2022-11-28T10:50:45.255Z,81.25
2022-11-28T10:54:27.451Z,81.50
2022-11-28T10:58:05.424Z,81.48
2022-11-28T11:01:08.547Z,81.46
2022-11-28T11:04:23.065Z,80.69
2022-11-28T11:07:33.649Z,80.23
2022-11-28T11:10:50.332Z,79.86
2022-11-28T11:14:01.337Z,79.45
2022-11-28T11:17:04.471Z,79.29
2022-11-28T11:20:27.633Z,79.23
2022-11-28T11:23:36.734Z,79.25
2022-11-28T11:26:43.806Z,79.06
2022-11-28T11:29:51.245Z,78.98
2022-11-28T11:32:56.487Z,78.78
2022-11-28T11:36:02.517Z,78.57
2022-11-28T11:39:25.876Z,78.48
2022-11-28T11:42:31.189Z,78.51
2022-11-28T11:45:35.501Z,77.97
2022-11-28T11:48:52.682Z,77.84
2022-11-28T11:52:01.467Z,77.72
2022-11-28T11:55:14.720Z,77.61
2022-11-28T11:58:23.621Z,77.03
2022-11-28T12:01:27.918Z,77.04
2022-11-28T12:04:45.686Z,76.95
2022-11-28T12:08:01.855Z,76.85
2022-11-28T12:11:12.258Z,76.95
2022-11-28T12:14:36.802Z,76.86
2022-11-28T12:17:51.462Z,77.26
2022-11-28T12:21:26.580Z,77.45
2022-11-28T12:24:52.966Z,78.36
2022-11-28T12:28:27.111Z,78.46
2022-11-28T12:31:44.114Z,78.00
2022-11-28T12:35:17.668Z,77.80
2022-11-28T12:38:47.950Z,77.88
2022-11-28T12:42:18.016Z,77.55
2022-11-28T12:45:39.883Z,77.42
2022-11-28T12:49:08.227Z,77.56
2022-11-28T12:52:23.088Z,77.46
2022-11-28T12:55:45.842Z,77.99
2022-11-28T12:59:00.808Z,78.74
2022-11-28T13:02:23.644Z,79.05
2022-11-28T13:05:29.721Z,79.02
2022-11-28T13:08:46.628Z,79.85
2022-11-28T13:12:00.814Z,79.55
2022-11-28T13:15:14.097Z,80.49
2022-11-28T13:18:41.365Z,80.46
2022-11-28T13:22:06.819Z,80.50
2022-11-28T13:25:19.584Z,80.59
2022-11-28T13:28:52.672Z,80.52
2022-11-28T13:32:08.166Z,80.20
2022-11-28T13:35:16.561Z,80.13
2022-11-28T13:38:38.454Z,79.92
2022-11-28T13:42:36.182Z,79.73
2022-11-28T13:49:20.391Z,80.00
2022-11-28T13:52:26.512Z,79.66
2022-11-28T13:55:38.363Z,79.82
2022-11-28T13:58:57.166Z,79.73
2022-11-28T14:02:18.006Z,79.64
2022-11-28T14:05:38.450Z,79.68
2022-11-28T14:08:44.226Z,79.72
2022-11-28T14:12:15.075Z,79.59
2022-11-28T14:15:34.046Z,79.87
2022-11-28T14:18:58.892Z,80.04
2022-11-28T14:22:19.560Z,79.44
2022-11-28T14:25:34.768Z,79.73
2022-11-28T14:28:42.855Z,79.84
2022-11-28T14:32:13.617Z,79.97
2022-11-28T14:35:54.767Z,79.89
2022-11-28T14:39:15.004Z,79.90
2022-11-28T14:42:44.145Z,80.25
2022-11-28T14:45:45.415Z,80.29
2022-11-28T14:49:00.362Z,79.99
2022-11-28T14:52:38.274Z,79.90
2022-11-28T14:55:41.924Z,80.20
2022-11-28T14:58:50.182Z,80.20
2022-11-28T15:02:02.077Z,79.93
2022-11-28T15:05:23.572Z,80.11
2022-11-28T15:08:55.542Z,80.23
2022-11-28T15:12:12.671Z,80.20
2022-11-28T15:15:17.672Z,80.26
2022-11-28T15:18:24.394Z,80.05
2022-11-28T15:21:28.037Z,79.85
2022-11-28T15:24:37.549Z,80.08
2022-11-28T15:27:40.162Z,79.84
2022-11-28T15:30:49.014Z,79.67
2022-11-28T15:33:51.638Z,79.61
2022-11-28T15:36:56.852Z,79.63
2022-11-28T15:40:06.429Z,79.44
2022-11-28T15:43:14.475Z,79.29
2022-11-28T15:46:23.574Z,79.42
2022-11-28T15:49:32.612Z,79.45
2022-11-28T15:52:35.299Z,79.49
2022-11-28T15:55:38.261Z,79.61
2022-11-28T15:58:43.508Z,79.69
2022-11-28T16:01:46.929Z,80.08
2022-11-28T16:05:09.033Z,80.23
2022-11-28T16:08:30.634Z,80.06
2022-11-28T16:11:35.303Z,80.00
2022-11-28T16:14:45.388Z,80.00
2022-11-28T16:17:49.643Z,80.04
2022-11-28T16:20:52.675Z,80.19
2022-11-28T16:23:56.297Z,80.15
2022-11-28T16:27:02.878Z,80.03
2022-11-28T16:30:37.163Z,79.99
2022-11-28T16:33:45.431Z,80.08
2022-11-28T16:36:49.714Z,80.20
2022-11-28T16:40:31.502Z,80.64
2022-11-28T16:43:38.872Z,80.40
2022-11-28T16:46:58.687Z,80.78
2022-11-28T16:50:19.782Z,80.66
2022-11-28T16:53:49.381Z,80.93
2022-11-28T16:56:57.717Z,80.88
2022-11-28T17:00:02.215Z,80.91
2022-11-28T17:03:11.651Z,81.05
2022-11-28T17:06:27.419Z,81.06
2022-11-28T17:09:31.033Z,81.11
2022-11-28T17:12:36.546Z,80.88
2022-11-28T17:15:42.262Z,81.28
2022-11-28T17:18:51.254Z,81.75
2022-11-28T17:21:58.404Z,81.58
2022-11-28T17:25:03.458Z,81.58
2022-11-28T17:28:09.904Z,81.94
2022-11-28T17:31:15.215Z,82.30
2022-11-28T17:34:27.237Z,82.52
2022-11-28T17:37:30.709Z,82.48
2022-11-28T17:40:34.217Z,82.21
2022-11-28T17:43:40.277Z,82.69
2022-11-28T17:46:44.232Z,82.94
2022-11-28T17:49:47.811Z,83.39
2022-11-28T17:52:54.111Z,83.88
2022-11-28T17:55:59.818Z,83.67
2022-11-28T17:59:03.670Z,84.60
2022-11-28T18:02:06.507Z,84.47
2022-11-28T18:05:10.888Z,84.31
2022-11-28T18:08:21.875Z,85.02
2022-11-28T18:11:27.666Z,85.33
2022-11-28T18:14:35.202Z,84.78
2022-11-28T18:17:41.503Z,84.68
2022-11-28T18:20:44.458Z,85.14
2022-11-28T18:23:51.131Z,84.52
2022-11-28T18:26:56.678Z,84.65
2022-11-28T18:30:07.564Z,84.46
2022-11-28T18:33:11.554Z,84.51
2022-11-28T18:36:17.539Z,84.61
2022-11-28T18:39:32.294Z,84.49
2022-11-28T18:42:37.415Z,84.49
2022-11-28T18:45:40.468Z,84.65
2022-11-28T18:48:46.790Z,84.40
2022-11-28T18:51:51.527Z,84.41
2022-11-28T18:54:55.817Z,84.66
2022-11-28T18:57:59.968Z,84.63
2022-11-28T19:01:18.476Z,84.76
2022-11-28T19:04:21.636Z,84.67
2022-11-28T19:07:27.967Z,84.64
2022-11-28T19:10:31.188Z,84.36
2022-11-28T19:13:35.700Z,84.55
2022-11-28T19:16:39.414Z,85.03
2022-11-28T19:19:47.106Z,84.89
2022-11-28T19:22:51.289Z,85.61
2022-11-28T19:25:54.700Z,85.09
2022-11-28T19:29:00.027Z,85.42
2022-11-28T19:32:03.000Z,85.48
2022-11-28T19:35:07.203Z,85.57
2022-11-28T19:38:10.781Z,85.78
2022-11-28T19:41:18.677Z,86.21
2022-11-28T19:44:24.640Z,85.96
2022-11-28T19:47:28.649Z,85.84
2022-11-28T19:50:33.709Z,85.61
2022-11-28T19:53:38.575Z,86.30
2022-11-28T19:56:42.142Z,85.94
2022-11-28T19:59:45.946Z,85.86
2022-11-28T20:02:50.518Z,86.14
2022-11-28T20:05:54.011Z,86.62
2022-11-28T20:09:01.175Z,86.50
2022-11-28T20:12:05.054Z,86.57
2022-11-28T20:15:11.518Z,86.34
2022-11-28T20:18:18.749Z,86.35
2022-11-28T20:21:22.140Z,86.82
2022-11-28T20:24:25.330Z,86.65
2022-11-28T20:27:29.572Z,86.75
2022-11-28T20:30:34.346Z,86.83
2022-11-28T20:33:38.447Z,87.09
2022-11-28T20:36:44.811Z,87.17
2022-11-28T20:39:48.437Z,87.08
2022-11-28T20:42:52.183Z,87.43
2022-11-28T20:45:56.370Z,87.35
2022-11-28T20:49:02.368Z,86.52
2022-11-28T20:52:06.230Z,86.49
2022-11-28T20:55:09.734Z,86.54
2022-11-28T20:58:13.933Z,86.83
2022-11-28T21:01:21.374Z,86.97
2022-11-28T21:04:24.856Z,87.22
2022-11-28T21:07:28.199Z,87.02
2022-11-28T21:10:33.808Z,86.96
2022-11-28T21:13:37.800Z,87.41
2022-11-28T21:16:40.513Z,87.28
2022-11-28T21:19:44.150Z,87.66
2022-11-28T21:22:47.467Z,87.93
2022-11-28T21:25:50.773Z,88.09
2022-11-28T21:28:56.572Z,87.78
2022-11-28T21:31:59.462Z,87.71
2022-11-28T21:35:04.396Z,87.88
2022-11-28T21:38:10.882Z,87.87
2022-11-28T21:41:13.470Z,88.18
2022-11-28T21:44:18.167Z,87.97
2022-11-28T21:47:20.786Z,87.89
2022-11-28T21:50:24.014Z,87.89
2022-11-28T21:53:28.067Z,87.88
2022-11-28T21:56:30.983Z,88.02
2022-11-28T21:59:33.932Z,88.26
2022-11-28T22:02:37.227Z,87.93
2022-11-28T22:05:40.360Z,88.22
2022-11-28T22:08:43.478Z,87.95
2022-11-28T22:11:47.805Z,87.79
2022-11-28T22:14:51.272Z,87.84
2022-11-28T22:17:54.324Z,87.95
2022-11-28T22:21:17.367Z,87.76
2022-11-28T22:24:28.193Z,88.06
2022-11-28T22:27:31.572Z,87.99
2022-11-28T22:30:34.490Z,88.42
2022-11-28T22:33:38.073Z,87.86
2022-11-28T22:36:41.000Z,87.76
2022-11-28T22:39:44.175Z,87.64
2022-11-28T22:42:47.138Z,87.33
2022-11-28T22:46:08.846Z,87.29
2022-11-28T22:49:12.082Z,87.46
2022-11-28T22:52:15.443Z,87.60
2022-11-28T22:55:18.558Z,87.56
2022-11-28T22:58:21.183Z,87.34
2022-11-28T23:01:26.900Z,87.38
2022-11-28T23:04:29.575Z,87.62
2022-11-28T23:07:32.741Z,87.48
2022-11-28T23:10:38.332Z,87.82
2022-11-28T23:13:44.147Z,87.77
2022-11-28T23:16:46.894Z,87.69
2022-11-28T23:19:50.799Z,87.73
2022-11-28T23:22:53.347Z,88.07
2022-11-28T23:25:56.235Z,87.98
2022-11-28T23:29:00.994Z,88.49
2022-11-28T23:32:04.321Z,88.20
2022-11-28T23:35:07.116Z,88.04
2022-11-28T23:38:10.066Z,88.04
2022-11-28T23:41:13.675Z,87.84
2022-11-28T23:44:17.849Z,87.69
2022-11-28T23:47:20.402Z,87.72
2022-11-28T23:50:23.384Z,87.77
2022-11-28T23:53:26.075Z,87.78
2022-11-28T23:56:31.590Z,87.47
2022-11-28T23:59:34.114Z,87.43
